KAQW

Details ICAO KAQW
Name HARRIMAN AND WEST
Region United States
Timezone America/New_York (UTC-5.0)
Plans Departing 7
Arriving 5
Stats Elevation 654 ft / 199 m (AMSL)
Location 42.695833° -73.170281°
Runways 1
Magnetic Variation 13.804° W
Sunrise 2017-12-15 12:17:33 UTC / 2017-12-15 07:17:33 Local
Sunset 2017-12-15 21:21:06 UTC / 2017-12-15 16:21:06 Local
Advertisement - Login to hide

Runways

ID Width Length Bearing (true) Bearing (mag) Surface Threshold Offset Overrun Length
11 100 ft / 30 m 4,266 ft / 1,300 m 109.43° 123.23° Asphalt 1,180 ft / 360 m 0 ft / 0 m
29 100 ft / 30 m 4,266 ft / 1,300 m 289.44° 303.24° Asphalt 800 ft / 244 m 0 ft / 0 m

Map

Weather


0- 5 10 15 20 25 30 35+ Temperature / ° C

Clouds and Precipitation
Forecast for 2017-12-15 12:00 UTC. Updated an hour ago

Ground ~20,000 ft ~40,000 ft Winds

METAR

KAQW 151152Z AUTO 00000KT 10SM CLR M14/M16 A3004 RMK AO2 SLP188 T11391156 11094 21139 53005

TAF

Not found

Frequencies

Recorded 134.77 MHz ASOS
Unicom 122.80 MHz CTAF/UNICOM
Warning: Do not use this data for real-world aviation or navigation. No guarantee of current accuracy is given.